• Join FlightAware (Why Join?)
  • Login
  • US Flag 
05:40AM EST


 

Airport Tracker/Info


-or-


 

Live Flight TrackerFlight Track Log ✈ AAL856 ✈ 02-Sep-2013 ✈ KSAN - KDFW

Flight Track Log - Related Links

Times and Time Zones

All times are in EDT time to prevent confusion due to time zone crossing. See the AAL856 flight status page for this flight to view local times or setup timezone preferences in your user account.

Time Position Orientation Groundspeed Altitude Reporting Facility
EDT Latitude Longitude Course Direction KTS MPH feet Rate Location/Type
03:52PM 32.7417 -117.2297 90° East 162 186 1,600  Level Los Angeles Center
03:53PM 32.7575 -117.2931 287° West 193 222 3,100 1,500 Climbing Los Angeles Center
03:54PM 32.7136 -117.3342 218° Southwest 235 270 5,100 2,100 Climbing Los Angeles Center
03:55PM 32.6531 -117.2675 137° Southeast 247 284 8,000 2,340 Climbing Los Angeles Center
03:56PM 32.6155 -116.7958 84° East  Level FlightAware Approximate
03:56PM 32.6417 -117.1761 98° East 274 315 10,000  Level Los Angeles Center
03:57PM 32.6333 -116.6612 90° East  Level FlightAware Approximate
03:57PM 32.6264 -117.0850 101° East 281 323 12,400  Level Los Angeles Center
03:58PM 32.6114 -116.9669 99° East 298 343 14,400 1,800 Climbing Los Angeles Center
03:59PM 32.6375 -116.8639 73° East 322 371 16,200 1,800 Climbing Los Angeles Center
04:00PM 32.6936 -116.7683 55° Northeast 341 392 18,200 1,740 Climbing Los Angeles Center
04:01PM 32.7583 -116.6775 50° Northeast 356 410 19,900 1,500 Climbing Los Angeles Center
04:02PM 32.8278 -116.5900 47° Northeast 362 417 21,400 1,260 Climbing Los Angeles Center
04:03PM 32.9183 -116.4892 43° Northeast 379 436 22,600 1,020 Climbing Los Angeles Center
04:04PM 32.9542 -116.3656 71° East 417 480 23,600 960 Climbing Los Angeles Center
04:05PM 32.9531 -116.2328 91° East 404 465 24,700 1,080 Climbing Los Angeles Center
04:06PM 32.9547 -116.0822 89° East 406 467 25,900 1,080 Climbing Los Angeles Center
04:07PM 32.9572 -115.9425 89° East 418 481 27,000 1,020 Climbing Los Angeles Center
04:08PM 32.9578 -115.8033 90° East 421 484 28,100 1,020 Climbing Los Angeles Center
04:09PM 32.9586 -115.6653 90° East 418 481 29,200 960 Climbing Los Angeles Center
04:10PM 32.9614 -115.5258 89° East 421 484 30,200 720 Climbing Los Angeles Center
04:11PM 32.9611 -115.3594 90° East 422 486 30,800 300 Climbing Los Angeles Center
04:12PM 32.9639 -115.2144 89° East 436 502 30,900  Climbing Los Angeles Center
04:14PM 32.9653 -115.0625 89° East 456 525 30,900  Level Los Angeles Center
04:15PM 32.9650 -114.9114 90° East 457 526 30,900  Level Los Angeles Center
04:16PM 32.9669 -114.7603 89° East 456 525 31,000  Climbing Los Angeles Center
04:17PM 32.9656 -114.6106 91° East 452 520 30,900 -60 Descending Los Angeles Center
04:18PM 32.9672 -114.4303 89° East 451 519 30,900  Level Los Angeles Center
04:19PM 32.9678 -114.2831 90° East 445 512 30,900  Level Los Angeles Center
04:20PM 32.9667 -114.1333 90° East 450 518 30,900  Level Los Angeles Center
04:21PM 32.9661 -113.9844 90° East 451 519 30,900  Level Los Angeles Center
04:22PM 32.9631 -113.8339 91° East 454 522 30,900  Level Los Angeles Center
04:23PM 32.9636 -113.6853 90° East 450 518 30,900  Level Los Angeles Center
04:24PM 32.9622 -113.5067 90° East 450 518 31,000  Climbing Los Angeles Center
04:25PM 32.9608 -113.3603 91° East 445 512 31,000 -60 Level Los Angeles Center
04:26PM 32.9886 -113.2064 78° East 452 520 30,900 -60 Descending Los Angeles Center
04:27PM 33.0267 -113.0611 73° East 456 525 30,900  Level Los Angeles Center
04:28PM 33.1033 -112.8969 61° Northeast 463 533 30,900  Level Albuquerque Center
04:29PM 33.1689 -112.7633 60° Northeast 464 534 31,000  Climbing Albuquerque Center
04:30PM 33.2347 -112.6289 60° Northeast 467 537 31,000  Level Albuquerque Center
04:31PM 33.2908 -112.5025 62° Northeast 469 540 31,000 120 Level Albuquerque Center
04:32PM 33.3547 -112.3339 66° East 466 536 31,300 420 Climbing Albuquerque Center
04:33PM 33.4094 -112.1917 65° Northeast 472 543 31,900 480 Climbing Albuquerque Center
04:34PM 33.4633 -112.0533 65° Northeast 467 537 32,400 480 Climbing Albuquerque Center
04:35PM 33.5183 -111.9197 64° Northeast 456 525 33,000 240 Climbing Albuquerque Center
04:36PM 33.5736 -111.7867 63° Northeast 452 520 33,000  Level Albuquerque Center
04:37PM 33.6400 -111.6269 63° Northeast 452 520 33,000  Level Albuquerque Center
04:39PM 33.6992 -111.4961 61° Northeast 452 520 33,000  Level Albuquerque Center
04:40PM 33.7581 -111.3642 62° Northeast 453 521 33,000  Level Albuquerque Center
04:41PM 33.8136 -111.2308 63° Northeast 450 518 33,000  Level Albuquerque Center
04:42PM 33.8483 -111.0572 76° East 446 513 33,000  Level Albuquerque Center
04:43PM 33.8708 -110.9114 79° East 446 513 33,000  Level Albuquerque Center
04:44PM 33.8917 -110.7639 80° East 447 514 33,000  Level Albuquerque Center
04:45PM 33.9125 -110.6178 80° East 446 513 33,000  Level Albuquerque Center
04:46PM 33.9333 -110.4694 80° East 449 517 33,000  Level Albuquerque Center
04:47PM 33.9542 -110.3197 80° East 445 512 33,000  Level Albuquerque Center
04:48PM 33.9736 -110.1733 81° East 443 510 33,000  Level Albuquerque Center
04:49PM 33.9978 -109.9975 81° East 443 510 33,000  Level Albuquerque Center
04:50PM 34.0178 -109.8531 80° East 440 506 33,000  Level Albuquerque Center
04:51PM 34.0392 -109.6914 81° East 444 511 33,000  Level Albuquerque Center
04:52PM 34.0581 -109.5519 81° East 443 510 33,000  Level Albuquerque Center
04:53PM 34.0669 -109.4094 86° East 445 512 33,000  Level Albuquerque Center
04:54PM 34.0719 -109.2586 88° East 446 513 33,000  Level Albuquerque Center
04:55PM 34.0744 -109.0981 89° East 448 516 33,000  Level Albuquerque Center
04:56PM 34.0750 -108.9311 90° East 448 516 33,000  Level Albuquerque Center
04:57PM 34.0689 -108.7775 93° East 449 517 33,000  Level Albuquerque Center
04:58PM 34.0625 -108.6261 93° East 450 518 33,000  Level Albuquerque Center
04:59PM 34.0494 -108.4625 95° East 449 517 33,000  Level Albuquerque Center
05:00PM 34.0303 -108.3147 99° East 447 514 33,000  Level Albuquerque Center
05:01PM 34.0128 -108.1661 98° East 449 517 33,000  Level Albuquerque Center
05:02PM 33.9811 -108.0125 104° East 449 517 33,000  Level Albuquerque Center
05:03PM 33.9583 -107.8631 100° East 452 520 33,000  Level Albuquerque Center
05:04PM 33.9511 -107.7228 94° East 451 519 33,000  Level Albuquerque Center
05:05PM 33.9519 -107.5425 90° East 450 518 33,000  Level Albuquerque Center
05:06PM 33.9692 -107.3931 82° East 452 520 33,000  Level Albuquerque Center
05:07PM 33.9897 -107.2433 81° East 454 522 33,000 -60 Level Albuquerque Center
05:08PM 34.0108 -107.0833 81° East 451 519 32,900 -60 Descending Albuquerque Center
05:10PM 34.0314 -106.9328 81° East 453 521 32,900  Level Albuquerque Center
05:11PM 34.0522 -106.7697 81° East 450 518 33,000  Climbing Albuquerque Center
05:12PM 34.0711 -106.6203 81° East 451 519 33,000  Level Albuquerque Center
05:13PM 34.0897 -106.4714 81° East 451 519 33,000  Level Albuquerque Center
05:14PM 34.1081 -106.3236 81° East 450 518 33,000  Level Albuquerque Center
05:15PM 34.1428 -106.1703 75° East 438 504 33,000  Level Albuquerque Center
05:16PM 34.1542 -106.0200 85° East 453 521 33,000  Level Albuquerque Center
05:17PM 34.1647 -105.8694 85° East 450 518 33,000  Level Albuquerque Center
05:18PM 34.1833 -105.7192 81° East 449 517 33,000  Level Albuquerque Center
05:19PM 34.2044 -105.5425 82° East 451 519 33,000  Level Albuquerque Center
05:20PM 34.2217 -105.3917 82° East 451 519 33,000  Level Albuquerque Center
05:21PM 34.2394 -105.2431 82° East 447 514 33,000  Level Albuquerque Center
05:22PM 34.2564 -105.0942 82° East 445 512 33,000  Level Albuquerque Center
05:23PM 34.2739 -104.9439 82° East 447 514 33,000  Level Albuquerque Center
05:24PM 34.2903 -104.7933 82° East 448 516 33,000  Level Albuquerque Center
05:25PM 34.3078 -104.6442 82° East 447 514 33,000  Level Albuquerque Center
05:26PM 34.3272 -104.4681 82° East 449 517 33,000  Level Albuquerque Center
05:27PM 34.3414 -104.3183 83° East 448 516 33,000  Level Albuquerque Center
05:28PM 34.3414 -104.1661 90° East 449 517 33,000  Level Albuquerque Center
05:29PM 34.3411 -104.0144 90° East 449 517 33,000  Level Albuquerque Center
05:30PM 34.3406 -103.8661 90° East 442 509 33,000  Level Albuquerque Center
05:31PM 34.3406 -103.7156 90° East 444 511 33,000  Level Albuquerque Center
05:32PM 34.3397 -103.5386 90° East 447 514 33,000  Level Albuquerque Center
05:33PM 34.3392 -103.3869 90° East 448 516 33,000  Level Albuquerque Center
05:34PM 34.3383 -103.2392 90° East 441 507 33,000  Level Albuquerque Center
05:35PM 34.3375 -103.0906 90° East 439 505 33,000  Level Albuquerque Center
05:36PM 34.3350 -102.9450 91° East 443 510 33,000  Level Albuquerque Center
05:37PM 34.3314 -102.7969 92° East 443 510 33,000  Level Albuquerque Center
05:38PM 34.3300 -102.6181 90° East 445 512 33,000  Level Albuquerque Center
05:39PM 34.3278 -102.4689 91° East 445 512 33,000  Level Albuquerque Center
05:41PM 34.3253 -102.3211 91° East 444 511 33,000  Level Albuquerque Center
05:42PM 34.3256 -102.1747 90° East 442 509 33,000  Level Albuquerque Center
05:43PM 34.3231 -102.0289 91° East 439 505 33,000  Level Albuquerque Center
05:44PM 34.3206 -101.8803 91° East 441 507 33,000  Level Albuquerque Center
05:45PM 34.3186 -101.7081 91° East 447 514 33,000  Level Fort Worth Center
05:46PM 34.3153 -101.5597 92° East 442 509 33,000  Level Fort Worth Center
05:47PM 34.3097 -101.4136 93° East 437 503 33,000  Level Fort Worth Center
05:48PM 34.3072 -101.2953 91° East 443 510 33,000  Level Fort Worth Center
05:49PM 34.3019 -101.1192 92° East 431 496 33,000  Level Fort Worth Center
05:50PM 34.2917 -100.9703 95° East 431 496 33,000  Level Fort Worth Center
05:51PM 34.2728 -100.8289 99° East 436 502 33,000  Level Fort Worth Center
05:52PM 34.2475 -100.6797 102° East 441 507 33,000  Level Fort Worth Center
05:53PM 34.2158 -100.5353 105° East 441 507 33,000  Level Fort Worth Center
05:54PM 34.1872 -100.4214 107° East 441 507 33,000  Level Fort Worth Center
05:55PM 34.1472 -100.2542 106° East 441 507 33,000  Level Fort Worth Center
05:56PM 34.1108 -100.1075 107° East 441 507 33,000  Level Fort Worth Center
05:57PM 34.0764 -99.9661 106° East 441 507 33,000  Level Fort Worth Center
05:58PM 34.0417 -99.8247 106° East 441 507 33,000  Level Fort Worth Center
05:59PM 34.0086 -99.6861 106° East 436 502 33,000  Level Fort Worth Center
06:00PM 33.9758 -99.5400 105° East 441 507 33,000 -240 Level Fort Worth Center
06:01PM 33.9406 -99.3964 106° East 446 513 32,600 -720 Descending Fort Worth Center
06:02PM 33.9053 -99.2503 106° East 446 513 31,600 -1,020 Descending Fort Worth Center
06:03PM 33.8717 -99.1119 106° East 441 507 30,600 -1,080 Descending Fort Worth Center
06:04PM 33.8358 -98.9714 107° East 441 507 29,500 -1,080 Descending Fort Worth Center
06:05PM 33.8000 -98.8308 107° East 441 507 28,500 -1,560 Descending Fort Worth Center
06:06PM 33.7661 -98.6903 106° East 441 507 26,400 -2,160 Descending Fort Worth Center
06:07PM 33.7297 -98.5550 108° East 441 507 24,200 -1,800 Descending Fort Worth Center
06:08PM 33.6933 -98.4269 109° East 418 481 22,900 -1,500 Descending Fort Worth Center
06:09PM 33.6483 -98.3042 114° Southeast 402 463 21,300 -1,620 Descending Fort Worth Center
06:10PM 33.6011 -98.1842 115° Southeast 402 463 19,700 -1,620 Descending Fort Worth Center
06:11PM 33.5497 -98.0639 117° Southeast 402 463 18,100 -1,680 Descending Fort Worth Center
06:12PM 33.5083 -97.9567 115° Southeast 402 463 16,400 -1,800 Descending Fort Worth Center
06:13PM 33.4589 -97.8317 115° Southeast 385 443 14,500 -1,680 Descending Fort Worth Center
06:14PM 33.4194 -97.7344 116° Southeast 373 429 13,100 -1,380 Descending Fort Worth Center
06:15PM 33.3675 -97.6200 118° Southeast 358 412 11,800 -1,020 Descending Fort Worth Center
06:16PM 33.2947 -97.5428 138° Southeast 347 399 11,100 -420 Descending Fort Worth Center
06:17PM 33.2342 -97.4706 135° Southeast 347 399 11,000 -60 Descending Fort Worth Center
06:18PM 33.1589 -97.3811 135° Southeast 341 392 11,000  Level Fort Worth Center
06:19PM 33.1089 -97.3217 135° Southeast 305 351 11,000  Level Fort Worth Center
06:20PM 33.0544 -97.2547 134° Southeast 258 297 11,000  Level Fort Worth Center
06:21PM 33.0064 -97.2028 138° Southeast 252 290 11,000 -480 Level Fort Worth Center
06:22PM 32.9481 -97.1683 154° Southeast 252 290 10,100 -1,020 Descending Fort Worth Center
06:23PM 32.8750 -97.1636 177° South 241 277 9,000 -1,140 Descending Fort Worth Center
06:24PM 32.8081 -97.1464 168° South 246 283 7,900 -1,320 Descending Fort Worth Center
06:25PM 32.7433 -97.1219 162° South 246 283 6,400 -1,440 Descending Fort Worth Center
06:26PM 32.7158 -97.0506 115° Southeast 217 250 5,100 -1,200 Descending Fort Worth Center
06:27PM 32.7575 -97.0133 37° Northeast 167 192 4,000 -1,380 Descending Fort Worth Center
06:28PM 32.8167 -97.0000 11° North 175 201 2,000 -1,620 Descending Dallas / Fort Worth TRACON
06:30PM 32.8833 -97.0333 348° North  Level FlightAware Approximate
06:37PM 32.8968 -97.0380 348° North  Level Estimated